Time;durP1;ratioP1;P1;durP2;ratioP2;P2;SDS_P1;SDS_P2;PMS_P1;PMS_P2;Temp;Humidity;BMP_temperature;BMP_pressure;BME280_temperature;BME280_humidity;BME280_pressure;Samples;Min_cycle;Max_cycle;Signal;HPM_P1;HPM_P2
2023/07/19 00:05:03;;;;;;;2.53;1.30;;;30.60;77.90;;;;;;10787266;33;20039;-73
2023/07/19 00:11:05;;;;;;;3.72;1.50;;;30.50;78.30;;;;;;10786951;33;20051;-73
2023/07/19 00:17:07;;;;;;;2.72;1.33;;;30.40;78.30;;;;;;10783015;33;20039;-73
2023/07/19 00:23:09;;;;;;;3.05;1.50;;;30.40;78.50;;;;;;10786816;33;20377;-73
2023/07/19 00:29:11;;;;;;;3.03;1.30;;;30.30;78.70;;;;;;10786553;33;20025;-73
2023/07/19 00:35:13;;;;;;;2.90;1.90;;;30.30;78.80;;;;;;10785433;33;20346;-73
2023/07/19 00:41:15;;;;;;;1.75;0.88;;;30.20;79.00;;;;;;10786492;33;20043;-73
2023/07/19 00:47:17;;;;;;;4.50;1.37;;;30.10;79.00;;;;;;10786209;33;20024;-73
2023/07/19 00:53:20;;;;;;;1.75;1.02;;;30.00;79.10;;;;;;10789160;33;20079;-73
2023/07/19 00:59:23;;;;;;;2.92;1.58;;;30.10;79.20;;;;;;10792275;33;20304;-73
2023/07/19 01:05:27;;;;;;;7.68;1.37;;;30.20;79.10;;;;;;10792013;33;20012;-73
2023/07/19 01:11:29;;;;;;;2.53;1.45;;;30.00;79.20;;;;;;10842369;32;20374;-73
2023/07/19 01:17:32;;;;;;;2.45;1.50;;;30.00;79.00;;;;;;10791758;33;20012;-73
2023/07/19 01:23:35;;;;;;;3.28;1.90;;;30.00;78.90;;;;;;10791530;33;20016;-73
2023/07/19 01:29:37;;;;;;;2.15;1.50;;;30.00;78.30;;;;;;10791262;33;20055;-72
2023/07/19 01:35:38;;;;;;;2.78;1.48;;;29.90;78.50;;;;;;10829060;32;20063;-73
2023/07/19 01:41:40;;;;;;;3.47;1.73;;;29.80;79.20;;;;;;10791057;33;20020;-72
2023/07/19 01:47:43;;;;;;;2.50;1.40;;;29.80;79.90;;;;;;10841380;32;20043;-72
2023/07/19 01:53:45;;;;;;;7.60;1.92;;;29.80;80.00;;;;;;10791232;33;20028;-72
2023/07/19 01:59:47;;;;;;;3.72;1.73;;;29.70;80.10;;;;;;10790549;33;20029;-72
2023/07/19 02:06:00;;;;;;;1.00;0.85;;;29.60;80.60;;;;;;10786796;33;20048;-72
2023/07/19 02:12:02;;;;;;;2.20;1.55;;;29.70;80.30;;;;;;10840464;32;20036;-72
2023/07/19 02:18:04;;;;;;;2.87;1.55;;;29.50;80.30;;;;;;10790033;33;20016;-72
2023/07/19 02:24:06;;;;;;;3.33;1.60;;;29.50;80.30;;;;;;10789801;33;20021;-73
2023/07/19 02:30:08;;;;;;;2.42;1.35;;;29.60;80.20;;;;;;10789624;33;20406;-72
2023/07/19 02:36:14;;;;;;;3.70;2.10;;;29.60;80.30;;;;;;10789530;33;20402;-73
2023/07/19 02:42:16;;;;;;;4.03;1.67;;;29.50;80.30;;;;;;10789296;33;20024;-72
2023/07/19 02:48:18;;;;;;;2.92;1.90;;;29.50;80.10;;;;;;10789708;33;20021;-72
2023/07/19 02:54:20;;;;;;;6.72;1.95;;;29.40;80.20;;;;;;10788851;33;20078;-72
2023/07/19 03:00:22;;;;;;;2.75;1.85;;;29.30;80.10;;;;;;10788779;33;20070;-73
2023/07/19 03:06:24;;;;;;;3.25;1.50;;;29.30;79.90;;;;;;10788753;33;20046;-72
2023/07/19 03:12:26;;;;;;;9.80;2.45;;;29.30;80.10;;;;;;10788351;33;20028;-72
2023/07/19 03:18:28;;;;;;;5.15;1.55;;;29.30;80.30;;;;;;10787787;33;20051;-71
2023/07/19 03:24:30;;;;;;;3.90;1.80;;;29.30;80.80;;;;;;10788133;33;20359;-72
2023/07/19 03:30:32;;;;;;;6.00;2.35;;;29.20;81.20;;;;;;10838581;32;20390;-72
2023/07/19 03:36:35;;;;;;;3.45;1.70;;;29.00;81.50;;;;;;10787725;33;20051;-72
2023/07/19 03:42:38;;;;;;;3.00;2.03;;;29.10;81.30;;;;;;10787725;33;20047;-72
2023/07/19 03:48:40;;;;;;;4.30;2.05;;;29.10;81.00;;;;;;10837899;32;20075;-72
2023/07/19 03:54:42;;;;;;;4.62;2.35;;;29.10;81.10;;;;;;10836845;32;20054;-73
2023/07/19 04:00:46;;;;;;;6.78;2.10;;;29.10;80.90;;;;;;10787258;33;20051;-72
2023/07/19 04:06:48;;;;;;;5.55;2.15;;;29.00;81.20;;;;;;10787255;33;20020;-72
2023/07/19 04:12:51;;;;;;;6.05;2.05;;;29.10;81.40;;;;;;10787122;33;20056;-73
2023/07/19 04:18:53;;;;;;;4.12;1.87;;;29.00;81.50;;;;;;10786999;33;20016;-72
2023/07/19 04:24:56;;;;;;;2.75;1.23;;;29.00;81.70;;;;;;10786796;33;20032;-72
2023/07/19 04:30:58;;;;;;;5.60;2.08;;;29.00;82.10;;;;;;10792658;33;20024;-73
2023/07/19 04:37:00;;;;;;;3.12;1.77;;;29.00;82.10;;;;;;10843500;32;20481;-72
2023/07/19 04:43:04;;;;;;;3.45;1.87;;;29.00;81.90;;;;;;10792822;33;20016;-72
2023/07/19 04:49:06;;;;;;;3.65;2.10;;;29.00;81.90;;;;;;10788317;33;20028;-71
2023/07/19 04:55:09;;;;;;;2.85;1.83;;;28.90;82.20;;;;;;10841511;32;20036;-72
2023/07/19 05:01:12;;;;;;;2.42;1.77;;;29.00;82.00;;;;;;10792288;33;20016;-73
2023/07/19 05:07:16;;;;;;;3.85;2.35;;;29.00;82.00;;;;;;10792205;33;20066;-72
2023/07/19 05:13:18;;;;;;;4.22;1.73;;;29.00;82.10;;;;;;10791814;33;20025;-73
2023/07/19 05:19:20;;;;;;;7.47;2.28;;;29.10;82.20;;;;;;10791710;33;20052;-73
2023/07/19 05:25:22;;;;;;;3.45;2.10;;;29.20;82.10;;;;;;10791496;33;20025;-72
2023/07/19 05:31:24;;;;;;;2.25;1.20;;;29.20;82.00;;;;;;10789093;33;20054;-73
2023/07/19 05:37:27;;;;;;;2.35;1.30;;;29.20;82.00;;;;;;10790930;33;20051;-73
2023/07/19 05:43:31;;;;;;;2.58;1.27;;;29.10;81.90;;;;;;10841644;32;20046;-73
2023/07/19 05:49:33;;;;;;;4.90;1.52;;;29.10;81.90;;;;;;10841377;32;20044;-73
2023/07/19 05:55:36;;;;;;;3.00;1.55;;;29.20;81.90;;;;;;10839947;32;20039;-73
2023/07/19 06:01:39;;;;;;;2.90;1.50;;;29.10;81.30;;;;;;10790300;33;20029;-73
2023/07/19 06:07:40;;;;;;;2.47;1.30;;;29.30;81.40;;;;;;10789137;33;20059;-73
2023/07/19 06:13:43;;;;;;;2.53;1.27;;;29.30;81.30;;;;;;10790165;33;20036;-73
2023/07/19 06:19:45;;;;;;;2.92;1.42;;;29.30;81.30;;;;;;10789836;33;20012;-73
2023/07/19 06:25:48;;;;;;;3.72;1.48;;;29.40;81.20;;;;;;10840425;32;20035;-73
2023/07/19 06:31:50;;;;;;;2.45;1.35;;;29.30;81.30;;;;;;10840171;32;20024;-73
2023/07/19 06:37:52;;;;;;;3.03;0.75;;;29.40;81.40;;;;;;10789400;33;20021;-73
2023/07/19 06:43:57;;;;;;;2.25;1.20;;;29.50;81.50;;;;;;10789336;33;20062;-73
2023/07/19 06:49:59;;;;;;;3.90;1.98;;;29.60;81.10;;;;;;10788509;33;20024;-72
2023/07/19 06:56:01;;;;;;;2.70;1.77;;;29.70;81.00;;;;;;10839290;32;20059;-73
2023/07/19 07:02:05;;;;;;;3.62;1.67;;;29.80;80.90;;;;;;10839076;32;20024;-72
2023/07/19 07:08:08;;;;;;;8.45;1.50;;;29.80;80.90;;;;;;10788598;33;20043;-73
2023/07/19 07:14:10;;;;;;;7.80;1.92;;;29.90;80.40;;;;;;10788365;33;20008;-72
2023/07/19 07:20:12;;;;;;;4.47;1.30;;;30.00;80.00;;;;;;10837545;32;20029;-73
2023/07/19 07:26:40;;;;;;;3.60;1.65;;;30.00;79.30;;;;;;10797524;27;20066;-73
2023/07/19 07:32:44;;;;;;;2.35;1.37;;;30.10;79.60;;;;;;10811214;33;20031;-73
2023/07/19 07:38:59;;;;;;;3.10;1.50;;;30.10;79.50;;;;;;10824686;33;20029;-73
2023/07/19 07:45:02;;;;;;;3.03;1.73;;;30.20;78.70;;;;;;10824637;33;20410;-73
2023/07/19 07:51:13;;;;;;;2.10;1.60;;;30.30;79.00;;;;;;10810767;33;20052;-73
2023/07/19 07:57:16;;;;;;;6.32;2.35;;;30.50;78.10;;;;;;10811140;33;20314;-73
2023/07/19 08:03:19;;;;;;;3.40;2.00;;;30.70;78.40;;;;;;10828506;32;20398;-73
2023/07/19 08:09:22;;;;;;;3.42;1.92;;;30.70;77.30;;;;;;10818576;33;20024;-73
2023/07/19 08:15:27;;;;;;;4.03;1.83;;;30.90;77.50;;;;;;10830355;33;20054;-73
2023/07/19 08:21:29;;;;;;;5.00;2.58;;;31.00;76.90;;;;;;10817082;33;20058;-73
2023/07/19 08:27:31;;;;;;;4.07;2.45;;;31.00;76.30;;;;;;10829934;33;20028;-73
2023/07/19 08:33:34;;;;;;;5.05;3.00;;;30.90;76.00;;;;;;10829671;33;20024;-72
2023/07/19 08:39:36;;;;;;;5.68;3.22;;;31.00;75.20;;;;;;10829558;33;20020;-72
2023/07/19 08:45:39;;;;;;;5.60;3.33;;;31.10;73.80;;;;;;10829517;33;20030;-73
2023/07/19 08:51:45;;;;;;;5.40;3.50;;;31.20;74.50;;;;;;10829245;33;20051;-73
2023/07/19 08:57:48;;;;;;;6.07;2.80;;;31.50;74.70;;;;;;10829242;33;20020;-72
2023/07/19 09:03:49;;;;;;;4.40;2.83;;;31.70;74.70;;;;;;10828994;33;20456;-73
2023/07/19 09:09:54;;;;;;;6.15;3.08;;;31.70;74.50;;;;;;10828755;33;20046;-73
2023/07/19 09:15:57;;;;;;;4.60;3.15;;;31.70;73.60;;;;;;10815378;33;20016;-73
2023/07/19 09:22:03;;;;;;;8.55;4.12;;;31.70;72.70;;;;;;10828475;33;20436;-73
2023/07/19 09:28:08;;;;;;;6.25;3.70;;;31.70;71.20;;;;;;10827406;33;20016;-73
2023/07/19 09:34:10;;;;;;;6.25;2.90;;;31.60;70.50;;;;;;10828111;33;20055;-72
2023/07/19 09:40:12;;;;;;;6.12;3.50;;;31.80;69.50;;;;;;10813996;33;20031;-73
2023/07/19 09:46:16;;;;;;;8.73;4.53;;;31.90;68.60;;;;;;10827816;33;20028;-73
2023/07/19 09:52:19;;;;;;;6.60;3.50;;;32.10;67.60;;;;;;10827559;33;20440;-73
2023/07/19 09:58:22;;;;;;;7.85;4.07;;;32.10;67.00;;;;;;10827291;33;20038;-73
2023/07/19 10:04:37;;;;;;;6.12;3.37;;;32.30;66.90;;;;;;10827240;33;20342;-73
2023/07/19 10:10:41;;;;;;;7.60;3.95;;;32.50;66.60;;;;;;10827086;33;20070;-73
2023/07/19 10:16:48;;;;;;;5.68;2.42;;;32.70;66.30;;;;;;10826897;33;20017;-72
2023/07/19 10:23:06;;;;;;;9.47;3.40;;;32.90;67.60;;;;;;10822731;32;20016;-73
2023/07/19 10:29:08;;;;;;;5.90;3.42;;;33.00;67.30;;;;;;10826611;33;20402;-73
2023/07/19 10:35:31;;;;;;;5.18;3.78;;;33.30;66.70;;;;;;10826287;33;20043;-72
2023/07/19 10:41:33;;;;;;;5.40;2.92;;;33.50;67.90;;;;;;10813011;33;20020;-72
2023/07/19 10:47:45;;;;;;;4.43;2.62;;;33.60;67.40;;;;;;10826086;33;20429;-72
2023/07/19 10:53:59;;;;;;;8.00;3.75;;;33.90;68.20;;;;;;10812655;33;20051;-71
2023/07/19 11:00:23;;;;;;;9.20;5.30;;;34.00;67.60;;;;;;10821785;33;20047;-72
2023/07/19 11:06:26;;;;;;;7.97;3.62;;;34.30;69.10;;;;;;10825488;33;20291;-71
2023/07/19 11:12:30;;;;;;;8.18;4.18;;;34.20;68.00;;;;;;10825307;33;20025;-72
2023/07/19 11:18:37;;;;;;;9.82;4.25;;;34.30;67.40;;;;;;10825179;33;20043;-71
2023/07/19 11:25:08;;;;;;;6.82;4.03;;;34.50;66.80;;;;;;10825187;32;20082;-72
2023/07/19 11:31:28;;;;;;;8.60;4.12;;;34.60;66.60;;;;;;10824823;33;20051;-72
2023/07/19 11:37:36;;;;;;;4.00;2.53;;;34.80;64.60;;;;;;10821814;33;20032;-72
2023/07/19 11:43:41;;;;;;;6.35;4.28;;;35.00;66.70;;;;;;10824410;33;20012;-73
2023/07/19 11:49:43;;;;;;;24.33;4.10;;;35.20;65.90;;;;;;10824279;33;20016;-73
2023/07/19 11:55:45;;;;;;;6.78;3.92;;;35.50;64.00;;;;;;10824302;33;20425;-72
2023/07/19 12:01:47;;;;;;;9.02;3.95;;;35.70;62.80;;;;;;10824213;33;20319;-72
2023/07/19 12:07:52;;;;;;;6.15;3.53;;;35.80;64.20;;;;;;10823958;33;20043;-72
2023/07/19 12:13:58;;;;;;;7.20;3.23;;;35.80;62.70;;;;;;10810265;33;20036;-72
2023/07/19 12:20:02;;;;;;;8.73;4.37;;;35.80;61.20;;;;;;10823529;33;20038;-73
2023/07/19 12:26:06;;;;;;;8.77;4.43;;;35.90;60.70;;;;;;10809783;32;20036;-72
2023/07/19 12:32:08;;;;;;;7.50;3.70;;;35.90;62.70;;;;;;10823285;33;20020;-73
2023/07/19 12:38:11;;;;;;;6.82;4.55;;;35.90;62.20;;;;;;10823286;33;20051;-73
2023/07/19 12:44:13;;;;;;;4.45;3.28;;;35.90;63.50;;;;;;10823377;33;20418;-72
2023/07/19 12:50:15;;;;;;;11.93;5.22;;;35.90;61.20;;;;;;10827120;32;20024;-73
2023/07/19 12:56:19;;;;;;;8.10;4.60;;;35.80;60.20;;;;;;10829273;33;20020;-74
2023/07/19 13:02:22;;;;;;;7.28;4.45;;;35.90;59.50;;;;;;10829046;33;20082;-72
2023/07/19 13:08:56;;;;;;;9.50;4.37;;;36.10;58.90;;;;;;10815322;33;20024;-73
2023/07/19 13:14:59;;;;;;;14.77;4.10;;;36.10;58.30;;;;;;10752300;33;20458;-72
2023/07/19 13:21:02;;;;;;;7.55;4.62;;;36.20;58.20;;;;;;10739600;33;20021;-73
2023/07/19 13:27:15;;;;;;;6.82;4.30;;;36.20;57.60;;;;;;10751151;33;20051;-73
2023/07/19 13:33:17;;;;;;;8.13;4.85;;;36.00;57.30;;;;;;10751563;33;20047;-73
2023/07/19 13:39:19;;;;;;;5.65;3.95;;;35.90;56.80;;;;;;10751728;33;20055;-73
2023/07/19 13:45:21;;;;;;;14.70;5.03;;;35.90;56.50;;;;;;10812639;33;20055;-73
2023/07/19 13:51:23;;;;;;;7.18;4.12;;;35.90;55.90;;;;;;10822874;33;20028;-72
2023/07/19 13:57:25;;;;;;;4.07;2.87;;;35.90;56.00;;;;;;10827159;32;20326;-71
2023/07/19 14:03:29;;;;;;;6.95;5.28;;;36.10;56.00;;;;;;10826273;33;20025;-73
2023/07/19 14:09:30;;;;;;;7.35;4.28;;;36.10;59.80;;;;;;10826913;33;20016;-73
2023/07/19 14:15:55;;;;;;;6.65;4.70;;;35.90;62.50;;;;;;10826662;33;20032;-72
2023/07/19 14:21:58;;;;;;;8.37;4.07;;;36.00;60.20;;;;;;10826479;33;20012;-72
2023/07/19 14:28:00;;;;;;;7.97;4.75;;;36.10;59.50;;;;;;10813892;33;20012;-72
2023/07/19 14:34:02;;;;;;;7.15;4.15;;;36.10;59.30;;;;;;10812656;33;20055;-72
2023/07/19 14:40:05;;;;;;;13.52;3.97;;;36.10;59.00;;;;;;10826075;33;20020;-73
2023/07/19 14:46:07;;;;;;;5.45;4.18;;;36.20;58.10;;;;;;10822627;32;20025;-72
2023/07/19 14:52:10;;;;;;;11.02;4.20;;;36.20;56.80;;;;;;10825493;33;20410;-73
2023/07/19 14:58:13;;;;;;;6.57;3.67;;;36.10;56.70;;;;;;10833310;32;20031;-72
2023/07/19 15:04:16;;;;;;;9.57;3.62;;;36.10;56.50;;;;;;10809411;33;20342;-72
2023/07/19 15:10:18;;;;;;;7.95;4.12;;;36.00;58.40;;;;;;10803435;32;20032;-72
2023/07/19 15:16:21;;;;;;;4.72;3.58;;;35.80;57.90;;;;;;10788362;33;20050;-72
2023/07/19 15:22:23;;;;;;;9.07;4.53;;;35.80;60.30;;;;;;10788372;33;20054;-72
2023/07/19 15:28:49;;;;;;;4.73;3.23;;;35.90;58.80;;;;;;10449788;27;12074616;-73
2023/07/19 15:34:51;;;;;;;7.80;4.37;;;35.90;59.90;;;;;;10747394;33;20121;-73
2023/07/19 15:40:52;;;;;;;12.57;4.47;;;35.90;58.90;;;;;;10747754;33;20020;-73
2023/07/19 15:46:54;;;;;;;6.97;3.97;;;35.80;60.10;;;;;;10747906;33;20052;-72
2023/07/19 15:52:57;;;;;;;10.32;4.87;;;35.70;60.20;;;;;;10745430;33;20036;-73
2023/07/19 15:58:58;;;;;;;10.50;5.22;;;35.90;59.60;;;;;;10774009;33;20036;-72
2023/07/19 16:05:15;;;;;;;9.43;3.50;;;35.90;61.10;;;;;;10774433;33;20043;-72
2023/07/19 16:11:17;;;;;;;6.20;3.70;;;35.90;60.10;;;;;;10773637;33;20032;-72
2023/07/19 16:17:19;;;;;;;8.63;3.58;;;36.00;59.40;;;;;;10783034;33;20024;-73
2023/07/19 16:23:21;;;;;;;8.82;3.80;;;36.10;58.70;;;;;;10786147;33;20047;-72
2023/07/19 16:29:23;;;;;;;8.45;3.97;;;36.00;61.10;;;;;;10791501;33;20086;-73
2023/07/19 16:35:30;;;;;;;6.22;3.33;;;35.90;60.40;;;;;;10792996;33;20012;-72
2023/07/19 16:41:32;;;;;;;6.22;4.18;;;36.00;60.20;;;;;;10792899;33;20047;-73
2023/07/19 16:47:35;;;;;;;7.00;3.47;;;35.90;60.10;;;;;;10792705;33;20424;-72
2023/07/19 16:53:38;;;;;;;6.05;4.50;;;35.90;60.20;;;;;;10778988;33;20031;-73
2023/07/19 16:59:45;;;;;;;7.32;4.32;;;35.90;61.10;;;;;;10790575;33;20032;-73
2023/07/19 17:05:46;;;;;;;9.45;5.12;;;35.90;60.50;;;;;;10787654;33;20051;-72
2023/07/19 17:11:49;;;;;;;8.52;4.12;;;35.80;60.30;;;;;;10791757;33;20055;-73
2023/07/19 17:17:52;;;;;;;9.60;3.97;;;35.80;60.10;;;;;;10781009;33;20021;-72
2023/07/19 17:23:54;;;;;;;6.85;4.37;;;35.70;61.30;;;;;;10755126;33;20013;-72
2023/07/19 17:29:56;;;;;;;10.65;4.60;;;35.50;62.70;;;;;;10755019;33;20020;-75
2023/07/19 17:35:58;;;;;;;12.18;5.00;;;35.40;64.30;;;;;;10751037;33;20055;-72
2023/07/19 17:41:59;;;;;;;13.00;5.25;;;35.10;69.90;;;;;;10754770;33;20017;-74
2023/07/19 17:48:01;;;;;;;7.10;5.50;;;34.70;71.30;;;;;;10755732;33;20060;-74
2023/07/19 17:54:04;;;;;;;9.40;5.90;;;34.20;73.40;;;;;;10754151;33;20051;-73
2023/07/19 18:00:06;;;;;;;7.32;5.28;;;34.00;72.40;;;;;;10753420;33;20052;-73
2023/07/19 18:06:10;;;;;;;9.02;4.43;;;33.80;72.70;;;;;;10792822;32;20026;-72
2023/07/19 18:12:14;;;;;;;11.38;5.25;;;33.40;72.60;;;;;;10797542;32;20020;-75
2023/07/19 18:18:16;;;;;;;8.60;6.03;;;33.30;72.10;;;;;;10773684;33;20062;-72
2023/07/19 18:24:18;;;;;;;8.60;5.35;;;33.10;73.00;;;;;;10772423;32;20051;-73
2023/07/19 18:30:20;;;;;;;11.60;6.60;;;32.90;73.40;;;;;;10740248;33;20040;-73
2023/07/19 18:36:22;;;;;;;9.45;6.68;;;32.90;74.20;;;;;;10750937;32;20067;-75
2023/07/19 18:42:24;;;;;;;16.30;8.43;;;32.80;74.20;;;;;;10769848;33;20032;-74
2023/07/19 18:48:26;;;;;;;21.62;6.97;;;32.50;74.70;;;;;;10752054;33;20359;-73
2023/07/19 18:54:28;;;;;;;11.80;4.87;;;32.30;75.20;;;;;;10753520;33;20079;-73
2023/07/19 19:00:30;;;;;;;8.38;3.83;;;32.00;75.10;;;;;;10810049;32;20033;-76
2023/07/19 19:06:32;;;;;;;10.30;5.22;;;31.90;77.00;;;;;;10788850;33;20361;-72
2023/07/19 19:12:35;;;;;;;15.38;4.25;;;31.50;78.30;;;;;;10788603;33;20395;-76
2023/07/19 19:18:37;;;;;;;12.02;6.80;;;30.80;78.50;;;;;;10788564;33;20024;-73
2023/07/19 19:24:39;;;;;;;14.02;5.47;;;30.30;79.30;;;;;;10771398;32;20036;-72
2023/07/19 19:30:41;;;;;;;17.20;4.75;;;29.50;77.70;;;;;;10784580;33;20036;-74
2023/07/19 19:36:43;;;;;;;9.23;3.72;;;29.40;78.70;;;;;;10787286;33;20032;-71
2023/07/19 19:42:45;;;;;;;11.07;4.82;;;29.40;78.30;;;;;;10788016;33;20024;-74
2023/07/19 19:48:47;;;;;;;7.80;3.85;;;29.30;77.60;;;;;;10787782;33;20025;-73
2023/07/19 19:54:49;;;;;;;4.55;2.40;;;29.50;77.60;;;;;;10774076;33;20048;-72
2023/07/19 20:01:05;;;;;;;10.50;5.65;;;29.60;77.00;;;;;;10793671;33;20425;-74
2023/07/19 20:07:08;;;;;;;6.87;3.75;;;28.90;75.50;;;;;;10794009;33;20414;-73
2023/07/19 20:13:10;;;;;;;6.97;3.97;;;28.80;78.70;;;;;;10793593;33;20024;-72
2023/07/19 20:19:12;;;;;;;6.45;3.35;;;29.00;80.20;;;;;;10793443;33;20052;-73
2023/07/19 20:25:14;;;;;;;8.90;4.18;;;29.20;79.50;;;;;;10793284;33;20047;-74
2023/07/19 20:31:16;;;;;;;6.78;3.03;;;29.30;78.90;;;;;;10793119;33;20028;-72
2023/07/19 20:37:18;;;;;;;4.30;2.37;;;29.30;78.80;;;;;;10793155;33;20025;-73
2023/07/19 20:43:20;;;;;;;7.15;4.20;;;29.40;78.60;;;;;;10793058;33;20331;-74
2023/07/19 20:49:22;;;;;;;6.57;3.33;;;29.00;77.50;;;;;;10791836;33;20020;-73
2023/07/19 20:55:24;;;;;;;7.68;3.83;;;28.90;78.10;;;;;;10779519;33;20021;-71
2023/07/19 21:01:27;;;;;;;6.20;3.78;;;28.90;78.10;;;;;;10792379;33;20020;-72
2023/07/19 21:07:29;;;;;;;5.57;3.42;;;29.00;78.40;;;;;;10791080;33;20017;-73
2023/07/19 21:13:32;;;;;;;5.35;3.15;;;29.00;78.80;;;;;;10788030;33;20289;-73
2023/07/19 21:19:34;;;;;;;5.57;3.72;;;29.00;78.30;;;;;;10791055;33;20020;-72
2023/07/19 21:25:36;;;;;;;10.07;4.03;;;28.90;78.90;;;;;;10791672;33;20016;-72
2023/07/19 21:31:47;;;;;;;8.10;3.65;;;28.90;80.20;;;;;;10791495;33;20051;-71
2023/07/19 21:37:50;;;;;;;5.72;3.12;;;28.80;80.60;;;;;;10791441;33;20028;-72
2023/07/19 21:43:52;;;;;;;5.70;3.70;;;28.80;80.30;;;;;;10788773;33;20028;-73
2023/07/19 21:49:54;;;;;;;7.22;4.93;;;28.70;79.20;;;;;;10775362;33;20024;-72
2023/07/19 21:55:56;;;;;;;7.90;4.45;;;28.10;77.60;;;;;;10790763;33;20025;-72
2023/07/19 22:01:58;;;;;;;5.78;3.35;;;27.80;78.00;;;;;;10790680;33;20017;-72
2023/07/19 22:08:00;;;;;;;5.70;3.03;;;27.90;78.10;;;;;;10790567;33;20339;-72
2023/07/19 22:14:10;;;;;;;7.22;2.62;;;27.90;78.50;;;;;;10790186;33;20046;-72
2023/07/19 22:20:12;;;;;;;6.90;3.92;;;28.00;78.90;;;;;;10789912;33;20063;-72
2023/07/19 22:26:14;;;;;;;5.10;2.70;;;28.20;79.70;;;;;;10789624;33;20028;-72
2023/07/19 22:32:16;;;;;;;9.00;3.55;;;28.30;79.50;;;;;;10789697;33;20050;-71
2023/07/19 22:38:18;;;;;;;3.80;1.85;;;28.30;79.20;;;;;;10787829;33;20398;-71
2023/07/19 22:44:20;;;;;;;5.97;3.78;;;28.10;80.00;;;;;;10789443;33;20029;-71
2023/07/19 22:50:22;;;;;;;4.60;2.40;;;28.10;80.30;;;;;;10789267;33;20056;-71
2023/07/19 22:56:25;;;;;;;5.68;3.83;;;28.10;79.80;;;;;;10789105;33;20032;-71
2023/07/19 23:02:27;;;;;;;8.45;3.85;;;28.00;80.30;;;;;;10788723;33;20042;-71
2023/07/19 23:08:29;;;;;;;10.02;3.10;;;27.50;78.50;;;;;;10788773;33;20048;-71
2023/07/19 23:14:31;;;;;;;9.43;3.17;;;27.50;79.80;;;;;;10788467;33;20025;-71
2023/07/19 23:20:33;;;;;;;4.90;2.90;;;27.90;79.80;;;;;;10788540;33;20074;-71
2023/07/19 23:26:35;;;;;;;3.35;2.28;;;27.90;79.80;;;;;;10799215;27;20028;-71
2023/07/19 23:32:37;;;;;;;5.18;2.62;;;27.90;79.90;;;;;;10824375;32;20043;-73
2023/07/19 23:38:39;;;;;;;3.22;2.25;;;28.10;80.00;;;;;;10824844;33;20032;-73
2023/07/19 23:44:41;;;;;;;4.32;2.35;;;28.10;80.80;;;;;;10824612;33;20024;-74
2023/07/19 23:50:43;;;;;;;4.97;3.17;;;27.90;80.60;;;;;;10824425;33;20402;-74
2023/07/19 23:56:46;;;;;;;9.05;5.20;;;27.60;80.00;;;;;;10824341;33;20024;-74
